sensor_id;sensor_type;location;lat;lon;timestamp;P1;durP1;ratioP1;P2;durP2;ratioP2
52708;SDS011;38606;52.986;6.980;2024-01-06T00:01:41;21.40;;;15.02;;
52708;SDS011;38606;52.986;6.980;2024-01-06T00:04:07;20.95;;;14.95;;
52708;SDS011;38606;52.986;6.980;2024-01-06T00:06:32;21.33;;;14.70;;
52708;SDS011;38606;52.986;6.980;2024-01-06T00:08:58;18.40;;;14.23;;
52708;SDS011;38606;52.986;6.980;2024-01-06T00:11:24;22.38;;;15.65;;
52708;SDS011;38606;52.986;6.980;2024-01-06T00:13:49;21.17;;;15.20;;
52708;SDS011;38606;52.986;6.980;2024-01-06T00:16:19;22.00;;;15.65;;
52708;SDS011;38606;52.986;6.980;2024-01-06T00:18:45;23.02;;;15.65;;
52708;SDS011;38606;52.986;6.980;2024-01-06T00:21:11;20.67;;;15.13;;
52708;SDS011;38606;52.986;6.980;2024-01-06T00:23:37;23.75;;;16.00;;
52708;SDS011;38606;52.986;6.980;2024-01-06T00:26:05;21.85;;;16.13;;
52708;SDS011;38606;52.986;6.980;2024-01-06T00:28:30;23.85;;;16.00;;
52708;SDS011;38606;52.986;6.980;2024-01-06T00:30:56;22.33;;;15.63;;
52708;SDS011;38606;52.986;6.980;2024-01-06T00:33:22;26.10;;;17.45;;
52708;SDS011;38606;52.986;6.980;2024-01-06T00:35:48;28.80;;;18.27;;
52708;SDS011;38606;52.986;6.980;2024-01-06T00:38:14;29.23;;;19.35;;
52708;SDS011;38606;52.986;6.980;2024-01-06T00:40:39;27.92;;;18.27;;
52708;SDS011;38606;52.986;6.980;2024-01-06T00:43:05;28.33;;;18.45;;
52708;SDS011;38606;52.986;6.980;2024-01-06T00:45:31;29.00;;;18.88;;
52708;SDS011;38606;52.986;6.980;2024-01-06T00:47:57;27.27;;;17.92;;
52708;SDS011;38606;52.986;6.980;2024-01-06T00:50:22;28.85;;;18.52;;
52708;SDS011;38606;52.986;6.980;2024-01-06T00:52:49;32.72;;;18.52;;
52708;SDS011;38606;52.986;6.980;2024-01-06T00:55:21;27.90;;;17.67;;
52708;SDS011;38606;52.986;6.980;2024-01-06T00:57:47;27.90;;;17.63;;
52708;SDS011;38606;52.986;6.980;2024-01-06T01:00:13;26.48;;;17.92;;
52708;SDS011;38606;52.986;6.980;2024-01-06T01:02:39;25.98;;;17.08;;
52708;SDS011;38606;52.986;6.980;2024-01-06T01:05:05;29.90;;;17.80;;
52708;SDS011;38606;52.986;6.980;2024-01-06T01:07:33;24.67;;;16.75;;
52708;SDS011;38606;52.986;6.980;2024-01-06T01:09:59;23.58;;;17.13;;
52708;SDS011;38606;52.986;6.980;2024-01-06T01:12:25;26.23;;;17.92;;
52708;SDS011;38606;52.986;6.980;2024-01-06T01:14:51;28.15;;;17.92;;
52708;SDS011;38606;52.986;6.980;2024-01-06T01:17:18;29.70;;;17.75;;
52708;SDS011;38606;52.986;6.980;2024-01-06T01:19:44;25.80;;;16.67;;
52708;SDS011;38606;52.986;6.980;2024-01-06T01:22:11;26.00;;;16.45;;
52708;SDS011;38606;52.986;6.980;2024-01-06T01:24:36;23.60;;;16.05;;
52708;SDS011;38606;52.986;6.980;2024-01-06T01:27:02;27.05;;;17.05;;
52708;SDS011;38606;52.986;6.980;2024-01-06T01:29:28;23.50;;;15.85;;
52708;SDS011;38606;52.986;6.980;2024-01-06T01:31:54;25.23;;;17.42;;
52708;SDS011;38606;52.986;6.980;2024-01-06T01:34:19;27.05;;;17.00;;
52708;SDS011;38606;52.986;6.980;2024-01-06T01:36:45;26.48;;;17.55;;
52708;SDS011;38606;52.986;6.980;2024-01-06T01:39:11;23.45;;;16.08;;
52708;SDS011;38606;52.986;6.980;2024-01-06T01:41:37;30.08;;;17.40;;
52708;SDS011;38606;52.986;6.980;2024-01-06T01:44:02;27.63;;;17.75;;
52708;SDS011;38606;52.986;6.980;2024-01-06T01:46:29;26.40;;;16.08;;
52708;SDS011;38606;52.986;6.980;2024-01-06T01:48:56;25.05;;;16.38;;
52708;SDS011;38606;52.986;6.980;2024-01-06T01:51:23;26.77;;;16.98;;
52708;SDS011;38606;52.986;6.980;2024-01-06T01:53:52;28.05;;;17.52;;
52708;SDS011;38606;52.986;6.980;2024-01-06T01:56:18;26.20;;;16.95;;
52708;SDS011;38606;52.986;6.980;2024-01-06T01:58:45;29.02;;;17.85;;
52708;SDS011;38606;52.986;6.980;2024-01-06T02:01:11;29.67;;;17.73;;
52708;SDS011;38606;52.986;6.980;2024-01-06T02:03:37;27.42;;;17.02;;
52708;SDS011;38606;52.986;6.980;2024-01-06T02:06:05;27.58;;;17.15;;
52708;SDS011;38606;52.986;6.980;2024-01-06T02:08:31;28.20;;;17.35;;
52708;SDS011;38606;52.986;6.980;2024-01-06T02:10:57;26.77;;;16.52;;
52708;SDS011;38606;52.986;6.980;2024-01-06T02:13:23;28.75;;;16.00;;
52708;SDS011;38606;52.986;6.980;2024-01-06T02:15:50;27.38;;;16.20;;
52708;SDS011;38606;52.986;6.980;2024-01-06T02:18:16;25.75;;;15.88;;
52708;SDS011;38606;52.986;6.980;2024-01-06T02:20:44;29.80;;;17.80;;
52708;SDS011;38606;52.986;6.980;2024-01-06T02:23:13;25.88;;;16.17;;
52708;SDS011;38606;52.986;6.980;2024-01-06T02:25:39;26.70;;;16.88;;
52708;SDS011;38606;52.986;6.980;2024-01-06T02:28:06;27.48;;;16.15;;
52708;SDS011;38606;52.986;6.980;2024-01-06T02:30:31;25.27;;;16.08;;
52708;SDS011;38606;52.986;6.980;2024-01-06T02:32:57;26.27;;;15.85;;
52708;SDS011;38606;52.986;6.980;2024-01-06T02:35:23;30.63;;;16.52;;
52708;SDS011;38606;52.986;6.980;2024-01-06T02:37:49;27.00;;;16.35;;
52708;SDS011;38606;52.986;6.980;2024-01-06T02:40:15;25.10;;;15.30;;
52708;SDS011;38606;52.986;6.980;2024-01-06T02:42:41;25.92;;;15.85;;
52708;SDS011;38606;52.986;6.980;2024-01-06T02:45:07;27.88;;;15.88;;
52708;SDS011;38606;52.986;6.980;2024-01-06T02:47:34;25.25;;;15.77;;
52708;SDS011;38606;52.986;6.980;2024-01-06T02:50:00;30.15;;;16.60;;
52708;SDS011;38606;52.986;6.980;2024-01-06T02:52:26;29.30;;;15.75;;
52708;SDS011;38606;52.986;6.980;2024-01-06T02:54:52;23.48;;;14.70;;
52708;SDS011;38606;52.986;6.980;2024-01-06T02:57:18;28.20;;;16.20;;
52708;SDS011;38606;52.986;6.980;2024-01-06T02:59:43;27.42;;;15.88;;
52708;SDS011;38606;52.986;6.980;2024-01-06T03:02:10;25.45;;;15.50;;
52708;SDS011;38606;52.986;6.980;2024-01-06T03:04:36;26.88;;;15.80;;
52708;SDS011;38606;52.986;6.980;2024-01-06T03:07:02;23.77;;;14.93;;
52708;SDS011;38606;52.986;6.980;2024-01-06T03:09:28;25.75;;;15.15;;
52708;SDS011;38606;52.986;6.980;2024-01-06T03:11:54;23.60;;;14.57;;
52708;SDS011;38606;52.986;6.980;2024-01-06T03:14:19;23.98;;;14.88;;
52708;SDS011;38606;52.986;6.980;2024-01-06T03:16:45;26.42;;;15.25;;
52708;SDS011;38606;52.986;6.980;2024-01-06T03:19:11;25.92;;;14.77;;
52708;SDS011;38606;52.986;6.980;2024-01-06T03:21:37;26.00;;;14.85;;
52708;SDS011;38606;52.986;6.980;2024-01-06T03:24:04;21.25;;;13.75;;
52708;SDS011;38606;52.986;6.980;2024-01-06T03:26:30;22.15;;;14.45;;
52708;SDS011;38606;52.986;6.980;2024-01-06T03:28:56;25.17;;;14.85;;
52708;SDS011;38606;52.986;6.980;2024-01-06T03:31:23;23.77;;;13.82;;
52708;SDS011;38606;52.986;6.980;2024-01-06T03:33:49;19.63;;;12.90;;
52708;SDS011;38606;52.986;6.980;2024-01-06T03:36:16;23.83;;;13.00;;
52708;SDS011;38606;52.986;6.980;2024-01-06T03:38:42;23.35;;;12.98;;
52708;SDS011;38606;52.986;6.980;2024-01-06T03:41:08;20.17;;;12.30;;
52708;SDS011;38606;52.986;6.980;2024-01-06T03:43:34;20.35;;;13.20;;
52708;SDS011;38606;52.986;6.980;2024-01-06T03:46:00;19.17;;;11.73;;
52708;SDS011;38606;52.986;6.980;2024-01-06T03:48:26;17.92;;;11.80;;
52708;SDS011;38606;52.986;6.980;2024-01-06T03:50:52;17.98;;;12.23;;
52708;SDS011;38606;52.986;6.980;2024-01-06T03:53:18;19.48;;;11.77;;
52708;SDS011;38606;52.986;6.980;2024-01-06T03:55:44;19.27;;;12.38;;
52708;SDS011;38606;52.986;6.980;2024-01-06T03:58:09;20.13;;;12.02;;
52708;SDS011;38606;52.986;6.980;2024-01-06T04:00:35;18.50;;;12.27;;
52708;SDS011;38606;52.986;6.980;2024-01-06T04:03:01;20.30;;;13.00;;
52708;SDS011;38606;52.986;6.980;2024-01-06T04:05:27;17.88;;;11.60;;
52708;SDS011;38606;52.986;6.980;2024-01-06T04:07:53;17.15;;;11.27;;
52708;SDS011;38606;52.986;6.980;2024-01-06T04:10:19;18.85;;;11.55;;
52708;SDS011;38606;52.986;6.980;2024-01-06T04:12:45;18.83;;;11.80;;
52708;SDS011;38606;52.986;6.980;2024-01-06T04:15:11;18.65;;;11.88;;
52708;SDS011;38606;52.986;6.980;2024-01-06T04:17:37;18.27;;;12.43;;
52708;SDS011;38606;52.986;6.980;2024-01-06T04:20:02;19.33;;;11.88;;
52708;SDS011;38606;52.986;6.980;2024-01-06T04:22:29;19.48;;;12.57;;
52708;SDS011;38606;52.986;6.980;2024-01-06T04:24:55;20.17;;;12.63;;
52708;SDS011;38606;52.986;6.980;2024-01-06T04:27:21;19.48;;;12.32;;
52708;SDS011;38606;52.986;6.980;2024-01-06T04:29:47;21.55;;;12.45;;
52708;SDS011;38606;52.986;6.980;2024-01-06T04:32:13;19.17;;;12.43;;
52708;SDS011;38606;52.986;6.980;2024-01-06T04:34:39;23.35;;;13.50;;
52708;SDS011;38606;52.986;6.980;2024-01-06T04:37:04;19.40;;;12.43;;
52708;SDS011;38606;52.986;6.980;2024-01-06T04:39:30;19.92;;;12.73;;
52708;SDS011;38606;52.986;6.980;2024-01-06T04:41:56;23.42;;;13.27;;
52708;SDS011;38606;52.986;6.980;2024-01-06T04:44:22;19.27;;;12.48;;
52708;SDS011;38606;52.986;6.980;2024-01-06T04:46:48;19.88;;;12.45;;
52708;SDS011;38606;52.986;6.980;2024-01-06T04:49:14;20.83;;;12.10;;
52708;SDS011;38606;52.986;6.980;2024-01-06T04:51:40;21.25;;;12.15;;
52708;SDS011;38606;52.986;6.980;2024-01-06T04:54:06;16.98;;;11.43;;
52708;SDS011;38606;52.986;6.980;2024-01-06T04:56:32;19.38;;;12.48;;
52708;SDS011;38606;52.986;6.980;2024-01-06T04:58:57;21.40;;;13.00;;
52708;SDS011;38606;52.986;6.980;2024-01-06T05:01:23;20.35;;;12.57;;
52708;SDS011;38606;52.986;6.980;2024-01-06T05:03:50;19.40;;;11.80;;
52708;SDS011;38606;52.986;6.980;2024-01-06T05:06:16;21.40;;;12.45;;
52708;SDS011;38606;52.986;6.980;2024-01-06T05:08:42;20.63;;;12.95;;
52708;SDS011;38606;52.986;6.980;2024-01-06T05:11:10;26.73;;;12.95;;
52708;SDS011;38606;52.986;6.980;2024-01-06T05:13:36;17.90;;;11.98;;
52708;SDS011;38606;52.986;6.980;2024-01-06T05:16:02;18.90;;;11.90;;
52708;SDS011;38606;52.986;6.980;2024-01-06T05:18:28;22.02;;;13.18;;
52708;SDS011;38606;52.986;6.980;2024-01-06T05:20:54;22.20;;;12.27;;
52708;SDS011;38606;52.986;6.980;2024-01-06T05:23:21;19.95;;;11.80;;
52708;SDS011;38606;52.986;6.980;2024-01-06T05:25:47;23.75;;;13.73;;
52708;SDS011;38606;52.986;6.980;2024-01-06T05:28:13;22.17;;;12.88;;
52708;SDS011;38606;52.986;6.980;2024-01-06T05:30:39;19.45;;;12.45;;
52708;SDS011;38606;52.986;6.980;2024-01-06T05:33:05;24.23;;;13.38;;
52708;SDS011;38606;52.986;6.980;2024-01-06T05:35:34;19.10;;;12.57;;
52708;SDS011;38606;52.986;6.980;2024-01-06T05:38:00;21.90;;;12.23;;
52708;SDS011;38606;52.986;6.980;2024-01-06T05:40:26;21.02;;;12.57;;
52708;SDS011;38606;52.986;6.980;2024-01-06T05:42:52;19.20;;;11.75;;
52708;SDS011;38606;52.986;6.980;2024-01-06T05:45:20;20.83;;;11.98;;
52708;SDS011;38606;52.986;6.980;2024-01-06T05:47:47;20.58;;;11.68;;
52708;SDS011;38606;52.986;6.980;2024-01-06T05:50:14;17.60;;;11.82;;
52708;SDS011;38606;52.986;6.980;2024-01-06T05:52:41;20.42;;;12.60;;
52708;SDS011;38606;52.986;6.980;2024-01-06T05:55:07;17.60;;;11.45;;
52708;SDS011;38606;52.986;6.980;2024-01-06T05:57:34;20.75;;;12.48;;
52708;SDS011;38606;52.986;6.980;2024-01-06T06:00:00;19.20;;;13.05;;
52708;SDS011;38606;52.986;6.980;2024-01-06T06:02:26;20.25;;;12.30;;
52708;SDS011;38606;52.986;6.980;2024-01-06T06:04:53;19.40;;;12.07;;
52708;SDS011;38606;52.986;6.980;2024-01-06T06:07:19;17.00;;;11.13;;
52708;SDS011;38606;52.986;6.980;2024-01-06T06:09:45;18.63;;;11.57;;
52708;SDS011;38606;52.986;6.980;2024-01-06T06:12:13;15.98;;;10.90;;
52708;SDS011;38606;52.986;6.980;2024-01-06T06:14:39;20.52;;;12.20;;
52708;SDS011;38606;52.986;6.980;2024-01-06T06:17:04;19.50;;;11.68;;
52708;SDS011;38606;52.986;6.980;2024-01-06T06:19:31;15.68;;;10.93;;
52708;SDS011;38606;52.986;6.980;2024-01-06T06:21:57;17.50;;;11.27;;
52708;SDS011;38606;52.986;6.980;2024-01-06T06:24:23;16.27;;;10.23;;
52708;SDS011;38606;52.986;6.980;2024-01-06T06:26:49;16.40;;;11.30;;
52708;SDS011;38606;52.986;6.980;2024-01-06T06:29:15;16.70;;;11.23;;
52708;SDS011;38606;52.986;6.980;2024-01-06T06:31:41;18.58;;;12.02;;
52708;SDS011;38606;52.986;6.980;2024-01-06T06:34:09;19.20;;;11.60;;
52708;SDS011;38606;52.986;6.980;2024-01-06T06:36:36;17.08;;;11.45;;
52708;SDS011;38606;52.986;6.980;2024-01-06T06:39:03;18.80;;;12.38;;
52708;SDS011;38606;52.986;6.980;2024-01-06T06:41:29;16.27;;;11.45;;
52708;SDS011;38606;52.986;6.980;2024-01-06T06:43:56;16.80;;;11.55;;
52708;SDS011;38606;52.986;6.980;2024-01-06T06:46:25;18.38;;;11.75;;
52708;SDS011;38606;52.986;6.980;2024-01-06T06:48:51;17.38;;;11.77;;
52708;SDS011;38606;52.986;6.980;2024-01-06T06:51:17;19.42;;;12.57;;
52708;SDS011;38606;52.986;6.980;2024-01-06T06:53:43;17.15;;;12.25;;
52708;SDS011;38606;52.986;6.980;2024-01-06T06:56:09;20.65;;;13.15;;
52708;SDS011;38606;52.986;6.980;2024-01-06T06:58:35;19.98;;;12.85;;
52708;SDS011;38606;52.986;6.980;2024-01-06T07:01:01;17.83;;;12.30;;
52708;SDS011;38606;52.986;6.980;2024-01-06T07:03:27;21.77;;;13.25;;
52708;SDS011;38606;52.986;6.980;2024-01-06T07:05:53;16.27;;;12.00;;
52708;SDS011;38606;52.986;6.980;2024-01-06T07:08:19;18.10;;;13.35;;
52708;SDS011;38606;52.986;6.980;2024-01-06T07:10:45;18.23;;;12.40;;
52708;SDS011;38606;52.986;6.980;2024-01-06T07:13:11;17.55;;;13.30;;
52708;SDS011;38606;52.986;6.980;2024-01-06T07:15:37;17.75;;;12.75;;
52708;SDS011;38606;52.986;6.980;2024-01-06T07:18:03;20.75;;;12.85;;
52708;SDS011;38606;52.986;6.980;2024-01-06T07:20:29;19.20;;;13.15;;
52708;SDS011;38606;52.986;6.980;2024-01-06T07:22:55;20.95;;;13.43;;
52708;SDS011;38606;52.986;6.980;2024-01-06T07:25:21;19.85;;;13.73;;
52708;SDS011;38606;52.986;6.980;2024-01-06T07:27:47;21.55;;;13.50;;
52708;SDS011;38606;52.986;6.980;2024-01-06T07:30:13;21.13;;;14.20;;
52708;SDS011;38606;52.986;6.980;2024-01-06T07:32:39;20.38;;;13.57;;
52708;SDS011;38606;52.986;6.980;2024-01-06T07:35:05;20.70;;;13.30;;
52708;SDS011;38606;52.986;6.980;2024-01-06T07:37:31;20.23;;;13.52;;
52708;SDS011;38606;52.986;6.980;2024-01-06T07:39:57;20.55;;;14.00;;
52708;SDS011;38606;52.986;6.980;2024-01-06T07:42:23;21.05;;;12.65;;
52708;SDS011;38606;52.986;6.980;2024-01-06T07:44:49;20.15;;;13.57;;
52708;SDS011;38606;52.986;6.980;2024-01-06T07:47:15;19.63;;;13.02;;
52708;SDS011;38606;52.986;6.980;2024-01-06T07:49:40;18.75;;;12.38;;
52708;SDS011;38606;52.986;6.980;2024-01-06T07:52:06;18.23;;;12.50;;
52708;SDS011;38606;52.986;6.980;2024-01-06T07:54:32;20.20;;;13.05;;
52708;SDS011;38606;52.986;6.980;2024-01-06T07:56:58;18.08;;;12.40;;
52708;SDS011;38606;52.986;6.980;2024-01-06T07:59:24;19.73;;;12.35;;
52708;SDS011;38606;52.986;6.980;2024-01-06T08:01:50;20.10;;;13.18;;
52708;SDS011;38606;52.986;6.980;2024-01-06T08:04:16;19.05;;;11.90;;
52708;SDS011;38606;52.986;6.980;2024-01-06T08:06:41;21.30;;;13.43;;
52708;SDS011;38606;52.986;6.980;2024-01-06T08:09:07;17.85;;;12.00;;
52708;SDS011;38606;52.986;6.980;2024-01-06T08:11:34;18.58;;;12.38;;
52708;SDS011;38606;52.986;6.980;2024-01-06T08:14:00;18.95;;;12.82;;
52708;SDS011;38606;52.986;6.980;2024-01-06T08:16:26;18.15;;;12.07;;
52708;SDS011;38606;52.986;6.980;2024-01-06T08:18:52;18.92;;;12.52;;
52708;SDS011;38606;52.986;6.980;2024-01-06T08:21:18;16.85;;;12.00;;
52708;SDS011;38606;52.986;6.980;2024-01-06T08:23:44;17.35;;;11.63;;
52708;SDS011;38606;52.986;6.980;2024-01-06T08:26:12;19.35;;;12.50;;
52708;SDS011;38606;52.986;6.980;2024-01-06T08:28:38;19.17;;;12.90;;
52708;SDS011;38606;52.986;6.980;2024-01-06T08:31:04;19.63;;;12.90;;
52708;SDS011;38606;52.986;6.980;2024-01-06T08:33:30;17.75;;;12.75;;
52708;SDS011;38606;52.986;6.980;2024-01-06T08:35:56;19.77;;;12.30;;
52708;SDS011;38606;52.986;6.980;2024-01-06T08:38:22;19.42;;;13.48;;
52708;SDS011;38606;52.986;6.980;2024-01-06T08:40:47;18.48;;;12.65;;
52708;SDS011;38606;52.986;6.980;2024-01-06T08:43:15;19.67;;;13.30;;
52708;SDS011;38606;52.986;6.980;2024-01-06T08:45:41;20.05;;;13.45;;
52708;SDS011;38606;52.986;6.980;2024-01-06T08:48:07;19.20;;;13.10;;
52708;SDS011;38606;52.986;6.980;2024-01-06T08:50:33;20.90;;;12.90;;
52708;SDS011;38606;52.986;6.980;2024-01-06T08:52:59;18.77;;;12.45;;
52708;SDS011;38606;52.986;6.980;2024-01-06T08:55:25;19.83;;;13.07;;
52708;SDS011;38606;52.986;6.980;2024-01-06T08:57:51;20.38;;;13.40;;
52708;SDS011;38606;52.986;6.980;2024-01-06T09:00:17;17.80;;;12.73;;
52708;SDS011;38606;52.986;6.980;2024-01-06T09:02:43;20.40;;;13.32;;
52708;SDS011;38606;52.986;6.980;2024-01-06T09:05:09;21.08;;;13.18;;
52708;SDS011;38606;52.986;6.980;2024-01-06T09:07:35;16.52;;;12.05;;
52708;SDS011;38606;52.986;6.980;2024-01-06T09:10:01;19.25;;;12.95;;
52708;SDS011;38606;52.986;6.980;2024-01-06T09:12:27;18.58;;;12.40;;
52708;SDS011;38606;52.986;6.980;2024-01-06T09:14:52;20.33;;;14.15;;
52708;SDS011;38606;52.986;6.980;2024-01-06T09:17:19;21.08;;;14.07;;
52708;SDS011;38606;52.986;6.980;2024-01-06T09:19:45;20.92;;;14.27;;
52708;SDS011;38606;52.986;6.980;2024-01-06T09:22:10;22.85;;;14.48;;
52708;SDS011;38606;52.986;6.980;2024-01-06T09:24:36;18.83;;;13.73;;
52708;SDS011;38606;52.986;6.980;2024-01-06T09:27:02;20.58;;;14.05;;
52708;SDS011;38606;52.986;6.980;2024-01-06T09:29:28;20.88;;;13.98;;
52708;SDS011;38606;52.986;6.980;2024-01-06T09:31:54;23.35;;;13.85;;
52708;SDS011;38606;52.986;6.980;2024-01-06T09:34:19;19.67;;;13.52;;
52708;SDS011;38606;52.986;6.980;2024-01-06T09:36:45;22.02;;;14.05;;
52708;SDS011;38606;52.986;6.980;2024-01-06T09:39:11;22.35;;;14.27;;
52708;SDS011;38606;52.986;6.980;2024-01-06T09:41:37;22.42;;;14.52;;
52708;SDS011;38606;52.986;6.980;2024-01-06T09:44:02;21.00;;;14.20;;
52708;SDS011;38606;52.986;6.980;2024-01-06T09:46:28;21.67;;;14.63;;
52708;SDS011;38606;52.986;6.980;2024-01-06T09:48:55;21.08;;;14.63;;
52708;SDS011;38606;52.986;6.980;2024-01-06T09:51:21;22.73;;;14.85;;
52708;SDS011;38606;52.986;6.980;2024-01-06T09:54:09;20.75;;;14.00;;
52708;SDS011;38606;52.986;6.980;2024-01-06T09:56:35;25.00;;;15.50;;
52708;SDS011;38606;52.986;6.980;2024-01-06T09:59:01;24.15;;;15.05;;
52708;SDS011;38606;52.986;6.980;2024-01-06T10:01:27;24.58;;;15.90;;
52708;SDS011;38606;52.986;6.980;2024-01-06T10:03:52;23.33;;;15.02;;
52708;SDS011;38606;52.986;6.980;2024-01-06T10:06:18;25.23;;;15.75;;
52708;SDS011;38606;52.986;6.980;2024-01-06T10:08:49;23.63;;;15.50;;
52708;SDS011;38606;52.986;6.980;2024-01-06T10:11:16;21.73;;;14.63;;
52708;SDS011;38606;52.986;6.980;2024-01-06T10:13:42;21.50;;;14.50;;
52708;SDS011;38606;52.986;6.980;2024-01-06T10:16:08;23.90;;;15.77;;
52708;SDS011;38606;52.986;6.980;2024-01-06T10:18:34;24.83;;;15.57;;
52708;SDS011;38606;52.986;6.980;2024-01-06T10:21:04;24.80;;;16.17;;
52708;SDS011;38606;52.986;6.980;2024-01-06T10:23:31;23.63;;;15.68;;
52708;SDS011;38606;52.986;6.980;2024-01-06T10:25:57;26.73;;;15.93;;
52708;SDS011;38606;52.986;6.980;2024-01-06T10:28:23;23.42;;;14.43;;
52708;SDS011;38606;52.986;6.980;2024-01-06T10:30:54;23.40;;;14.65;;
52708;SDS011;38606;52.986;6.980;2024-01-06T10:33:21;22.38;;;13.95;;
52708;SDS011;38606;52.986;6.980;2024-01-06T10:35:48;21.60;;;14.35;;
52708;SDS011;38606;52.986;6.980;2024-01-06T10:38:14;20.55;;;13.43;;
52708;SDS011;38606;52.986;6.980;2024-01-06T10:40:55;24.65;;;15.80;;
52708;SDS011;38606;52.986;6.980;2024-01-06T10:43:23;22.85;;;14.48;;
52708;SDS011;38606;52.986;6.980;2024-01-06T10:45:53;20.40;;;13.85;;
52708;SDS011;38606;52.986;6.980;2024-01-06T10:48:22;23.38;;;14.73;;
52708;SDS011;38606;52.986;6.980;2024-01-06T10:50:51;22.08;;;14.45;;
52708;SDS011;38606;52.986;6.980;2024-01-06T10:53:18;23.17;;;14.82;;
52708;SDS011;38606;52.986;6.980;2024-01-06T10:55:45;21.13;;;14.35;;
52708;SDS011;38606;52.986;6.980;2024-01-06T10:58:14;21.95;;;14.60;;
52708;SDS011;38606;52.986;6.980;2024-01-06T11:00:42;21.83;;;14.55;;
52708;SDS011;38606;52.986;6.980;2024-01-06T11:03:08;20.42;;;13.20;;
52708;SDS011;38606;52.986;6.980;2024-01-06T11:05:35;22.05;;;13.70;;
52708;SDS011;38606;52.986;6.980;2024-01-06T11:08:05;21.23;;;13.90;;
52708;SDS011;38606;52.986;6.980;2024-01-06T11:10:32;22.10;;;14.18;;
52708;SDS011;38606;52.986;6.980;2024-01-06T11:13:09;20.27;;;13.52;;
52708;SDS011;38606;52.986;6.980;2024-01-06T11:15:43;19.60;;;13.30;;
52708;SDS011;38606;52.986;6.980;2024-01-06T11:18:30;21.65;;;13.88;;
52708;SDS011;38606;52.986;6.980;2024-01-06T11:21:14;20.58;;;13.75;;
52708;SDS011;38606;52.986;6.980;2024-01-06T11:23:42;21.63;;;14.13;;
52708;SDS011;38606;52.986;6.980;2024-01-06T11:26:08;21.23;;;13.88;;
52708;SDS011;38606;52.986;6.980;2024-01-06T11:28:44;18.00;;;12.95;;
52708;SDS011;38606;52.986;6.980;2024-01-06T11:31:11;20.23;;;13.40;;
52708;SDS011;38606;52.986;6.980;2024-01-06T11:33:41;20.30;;;13.48;;
52708;SDS011;38606;52.986;6.980;2024-01-06T11:36:10;19.67;;;12.90;;
52708;SDS011;38606;52.986;6.980;2024-01-06T11:38:39;23.63;;;14.27;;
52708;SDS011;38606;52.986;6.980;2024-01-06T11:41:08;19.40;;;13.52;;
52708;SDS011;38606;52.986;6.980;2024-01-06T11:43:37;21.23;;;13.65;;
52708;SDS011;38606;52.986;6.980;2024-01-06T11:46:06;20.60;;;13.60;;
52708;SDS011;38606;52.986;6.980;2024-01-06T11:48:34;19.55;;;13.18;;
52708;SDS011;38606;52.986;6.980;2024-01-06T11:51:01;21.52;;;13.80;;
52708;SDS011;38606;52.986;6.980;2024-01-06T11:53:28;22.08;;;13.93;;
52708;SDS011;38606;52.986;6.980;2024-01-06T11:55:55;21.13;;;14.27;;
52708;SDS011;38606;52.986;6.980;2024-01-06T11:58:20;23.02;;;14.18;;
52708;SDS011;38606;52.986;6.980;2024-01-06T12:00:54;21.55;;;13.82;;
52708;SDS011;38606;52.986;6.980;2024-01-06T12:03:22;21.73;;;14.27;;
52708;SDS011;38606;52.986;6.980;2024-01-06T12:06:01;20.17;;;14.20;;
52708;SDS011;38606;52.986;6.980;2024-01-06T12:08:27;19.63;;;13.35;;
52708;SDS011;38606;52.986;6.980;2024-01-06T12:11:03;21.10;;;14.25;;
52708;SDS011;38606;52.986;6.980;2024-01-06T12:13:29;20.58;;;14.45;;
52708;SDS011;38606;52.986;6.980;2024-01-06T12:15:56;21.50;;;13.82;;
52708;SDS011;38606;52.986;6.980;2024-01-06T12:18:22;20.15;;;13.82;;
52708;SDS011;38606;52.986;6.980;2024-01-06T12:20:49;20.95;;;13.27;;
52708;SDS011;38606;52.986;6.980;2024-01-06T12:23:28;25.05;;;14.63;;
52708;SDS011;38606;52.986;6.980;2024-01-06T12:25:55;20.17;;;14.15;;
52708;SDS011;38606;52.986;6.980;2024-01-06T12:28:21;20.48;;;13.52;;
52708;SDS011;38606;52.986;6.980;2024-01-06T12:30:46;24.58;;;15.45;;
52708;SDS011;38606;52.986;6.980;2024-01-06T12:33:12;22.55;;;15.00;;
52708;SDS011;38606;52.986;6.980;2024-01-06T12:35:39;20.70;;;14.20;;
52708;SDS011;38606;52.986;6.980;2024-01-06T12:38:06;20.35;;;12.98;;
52708;SDS011;38606;52.986;6.980;2024-01-06T12:40:35;24.02;;;13.98;;
52708;SDS011;38606;52.986;6.980;2024-01-06T12:43:02;20.17;;;13.32;;
52708;SDS011;38606;52.986;6.980;2024-01-06T12:45:29;20.30;;;13.27;;
52708;SDS011;38606;52.986;6.980;2024-01-06T12:47:55;19.92;;;12.45;;
52708;SDS011;38606;52.986;6.980;2024-01-06T12:50:20;20.35;;;13.70;;
52708;SDS011;38606;52.986;6.980;2024-01-06T12:52:46;19.95;;;12.95;;
52708;SDS011;38606;52.986;6.980;2024-01-06T12:55:14;23.00;;;14.27;;
52708;SDS011;38606;52.986;6.980;2024-01-06T12:57:41;21.00;;;13.20;;
52708;SDS011;38606;52.986;6.980;2024-01-06T13:00:08;18.83;;;13.40;;
52708;SDS011;38606;52.986;6.980;2024-01-06T13:02:37;23.60;;;14.10;;
52708;SDS011;38606;52.986;6.980;2024-01-06T13:05:03;21.50;;;13.95;;
52708;SDS011;38606;52.986;6.980;2024-01-06T13:07:29;17.90;;;12.32;;
52708;SDS011;38606;52.986;6.980;2024-01-06T13:09:55;20.10;;;13.98;;
52708;SDS011;38606;52.986;6.980;2024-01-06T13:12:21;19.80;;;12.63;;
52708;SDS011;38606;52.986;6.980;2024-01-06T13:14:48;19.67;;;12.88;;
52708;SDS011;38606;52.986;6.980;2024-01-06T13:17:15;18.95;;;13.38;;
52708;SDS011;38606;52.986;6.980;2024-01-06T13:19:41;20.50;;;13.50;;
52708;SDS011;38606;52.986;6.980;2024-01-06T13:22:07;22.02;;;13.55;;
52708;SDS011;38606;52.986;6.980;2024-01-06T13:24:33;20.27;;;13.48;;
52708;SDS011;38606;52.986;6.980;2024-01-06T13:26:59;17.23;;;11.77;;
52708;SDS011;38606;52.986;6.980;2024-01-06T13:29:27;21.08;;;13.80;;
52708;SDS011;38606;52.986;6.980;2024-01-06T13:31:54;18.08;;;12.50;;
52708;SDS011;38606;52.986;6.980;2024-01-06T13:34:19;20.20;;;13.50;;
52708;SDS011;38606;52.986;6.980;2024-01-06T13:36:45;21.05;;;13.93;;
52708;SDS011;38606;52.986;6.980;2024-01-06T13:39:11;22.45;;;14.20;;
52708;SDS011;38606;52.986;6.980;2024-01-06T13:41:45;20.15;;;13.70;;
52708;SDS011;38606;52.986;6.980;2024-01-06T13:44:12;20.00;;;13.07;;
52708;SDS011;38606;52.986;6.980;2024-01-06T13:46:39;17.92;;;12.60;;
52708;SDS011;38606;52.986;6.980;2024-01-06T13:49:09;21.02;;;14.15;;
52708;SDS011;38606;52.986;6.980;2024-01-06T13:51:35;19.27;;;12.68;;
52708;SDS011;38606;52.986;6.980;2024-01-06T13:54:01;20.85;;;12.95;;
52708;SDS011;38606;52.986;6.980;2024-01-06T13:56:27;22.42;;;14.38;;
52708;SDS011;38606;52.986;6.980;2024-01-06T13:58:52;24.08;;;15.80;;
52708;SDS011;38606;52.986;6.980;2024-01-06T14:01:18;21.85;;;14.60;;
52708;SDS011;38606;52.986;6.980;2024-01-06T14:03:44;21.35;;;14.32;;
52708;SDS011;38606;52.986;6.980;2024-01-06T14:06:11;22.08;;;13.80;;
52708;SDS011;38606;52.986;6.980;2024-01-06T14:08:36;25.60;;;14.85;;
52708;SDS011;38606;52.986;6.980;2024-01-06T14:11:02;21.30;;;14.02;;
52708;SDS011;38606;52.986;6.980;2024-01-06T14:13:28;21.85;;;13.82;;
52708;SDS011;38606;52.986;6.980;2024-01-06T14:15:54;20.10;;;13.52;;
52708;SDS011;38606;52.986;6.980;2024-01-06T14:18:21;22.02;;;13.55;;